地図

経路データ

SID SEASON NUMBER BASIN SUBBASIN NAME ISO_TIME NATURE LAT LON WMO_WIND WMO_PRES WMO_AGENCY TRACK_TYPE DIST2LAND LANDFALL IFLAG USA_AGENCY USA_ATCF_ID USA_LAT USA_LON USA_RECORD USA_STATUS USA_WIND USA_PRES USA_SSHS USA_R34_NE USA_R34_SE USA_R34_SW USA_R34_NW USA_R50_NE USA_R50_SE USA_R50_SW USA_R50_NW USA_R64_NE USA_R64_SE USA_R64_SW USA_R64_NW USA_POCI USA_ROCI USA_RMW USA_EYE TOKYO_LAT TOKYO_LON TOKYO_GRADE TOKYO_WIND TOKYO_PRES TOKYO_R50_DIR TOKYO_R50_LONG TOKYO_R50_SHORT TOKYO_R30_DIR TOKYO_R30_LONG TOKYO_R30_SHORT TOKYO_LAND CMA_LAT CMA_LON CMA_CAT CMA_WIND CMA_PRES HKO_LAT HKO_LON HKO_CAT HKO_WIND HKO_PRES NEWDELHI_LAT NEWDELHI_LON NEWDELHI_GRADE NEWDELHI_WIND NEWDELHI_PRES NEWDELHI_CI NEWDELHI_DP NEWDELHI_POCI REUNION_LAT REUNION_LON REUNION_TYPE REUNION_WIND REUNION_PRES REUNION_TNUM REUNION_CI REUNION_RMW REUNION_R34_NE REUNION_R34_SE REUNION_R34_SW REUNION_R34_NW REUNION_R50_NE REUNION_R50_SE REUNION_R50_SW REUNION_R50_NW REUNION_R64_NE REUNION_R64_SE REUNION_R64_SW REUNION_R64_NW BOM_LAT BOM_LON BOM_TYPE BOM_WIND BOM_PRES BOM_TNUM BOM_CI BOM_RMW BOM_R34_NE BOM_R34_SE BOM_R34_SW BOM_R34_NW BOM_R50_NE BOM_R50_SE BOM_R50_SW BOM_R50_NW BOM_R64_NE BOM_R64_SE BOM_R64_SW BOM_R64_NW BOM_ROCI BOM_POCI BOM_EYE BOM_POS_METHOD BOM_PRES_METHOD NADI_LAT NADI_LON NADI_CAT NADI_WIND NADI_PRES WELLINGTON_LAT WELLINGTON_LON WELLINGTON_WIND WELLINGTON_PRES DS824_LAT DS824_LON DS824_STAGE DS824_WIND DS824_PRES TD9636_LAT TD9636_LON TD9636_STAGE TD9636_WIND TD9636_PRES TD9635_LAT TD9635_LON TD9635_WIND TD9635_PRES TD9635_ROCI NEUMANN_LAT NEUMANN_LON NEUMANN_CLASS NEUMANN_WIND NEUMANN_PRES MLC_LAT MLC_LON MLC_CLASS MLC_WIND MLC_PRES USA_GUST BOM_GUST BOM_GUST_PER REUNION_GUST REUNION_GUST_PER USA_SEAHGT USA_SEARAD_NE USA_SEARAD_SE USA_SEARAD_SW USA_SEARAD_NW STORM_SPEED STORM_DIR
2020185N32284 2020 35 NA NA EDOUARD 2020-07-03 00:00:00 DS 31.7000 -76.1000 PROVISIONAL 302 302 O_____________ nhc_working_bt AL052020 31.7000 -76.1000 LO 20 1011 -3 1013 120 60 7 170
2020185N32284 2020 35 NA NA EDOUARD 2020-07-03 03:00:00 DS 31.3451 -76.0200 PROVISIONAL 345 345 P_____________ AL052020 31.3451 -76.0200 LO 20 1011 -3 1013 120 60 7 166
2020185N32284 2020 35 NA NA EDOUARD 2020-07-03 06:00:00 DS 31.0000 -75.9000 PROVISIONAL 378 378 O_____________ nhc_working_bt AL052020 31.0000 -75.9000 LO 20 1011 -3 1013 120 60 7 158
2020185N32284 2020 35 NA NA EDOUARD 2020-07-03 09:00:00 DS 30.6773 -75.7026 PROVISIONAL 417 417 P_____________ AL052020 30.6773 -75.7026 LO 20 1011 -3 1013 120 60 7 144
2020185N32284 2020 35 NA NA EDOUARD 2020-07-03 12:00:00 DS 30.4000 -75.4000 PROVISIONAL 460 460 O_____________ nhc_working_bt AL052020 30.4000 -75.4000 LO 20 1011 -3 1013 120 60 8 132
2020185N32284 2020 35 NA NA EDOUARD 2020-07-03 15:00:00 DS 30.1545 -75.0248 PROVISIONAL 499 499 P_____________ AL052020 30.1545 -75.0248 LO 22 1010 -3 1013 120 52 9 117
2020185N32284 2020 35 NA NA EDOUARD 2020-07-03 18:00:00 DS 30.0000 -74.5000 PROVISIONAL 545 545 O_____________ nhc_working_bt AL052020 30.0000 -74.5000 LO 25 1010 -3 1013 120 45 11 102
2020185N32284 2020 35 NA NA EDOUARD 2020-07-03 21:00:00 DS 29.9398 -73.8171 PROVISIONAL 592 592 P_____________ AL052020 29.9398 -73.8171 LO 27 1009 -3 1013 120 37 13 90
2020185N32284 2020 35 NA NA EDOUARD 2020-07-04 00:00:00 DS 30.0000 -73.0000 PROVISIONAL 618 618 O_____________ nhc_working_bt AL052020 30.0000 -73.0000 LO 30 1009 -3 1013 120 30 15 81
2020185N32284 2020 35 NA NA EDOUARD 2020-07-04 03:00:00 DS 30.1623 -72.1227 PROVISIONAL 649 649 P_____________ AL052020 30.1623 -72.1227 LO 30 1009 -3 1013 120 30 16 76
2020185N32284 2020 35 NA NA EDOUARD 2020-07-04 06:00:00 DS 30.4000 -71.2000 PROVISIONAL 689 689 O_____________ nhc_working_bt AL052020 30.4000 -71.2000 LO 30 1009 -3 1013 120 30 17 74
2020185N32284 2020 35 NA NA EDOUARD 2020-07-04 09:00:00 DS 30.6350 -70.2698 PROVISIONAL 737 736 P_____________ AL052020 30.6350 -70.2698 LO 30 1009 -3 1012 120 30 16 72
2020185N32284 2020 35 NA NA EDOUARD 2020-07-04 12:00:00 TS 30.9000 -69.4000 PROVISIONAL 782 782 O_____________ nhc_working_bt AL052020 30.9000 -69.4000 TD 30 1009 -1 1012 120 30 40 15 68
2020185N32284 2020 35 NA NA EDOUARD 2020-07-04 15:00:00 TS 31.1991 -68.6481 PROVISIONAL 818 818 P_____________ AL052020 31.1920 -68.6398 TD 30 1008 -1 1011 120 30 13 63
2020185N32284 2020 35 NA NA EDOUARD 2020-07-04 18:00:00 TS 31.5000 -68.0000 PROVISIONAL 842 842 O_____________ nhc_working_bt AL052020 31.5000 -68.0000 TD 30 1007 -1 1011 120 30 40 12 59
2020185N32284 2020 35 NA NA EDOUARD 2020-07-04 21:00:00 TS 31.7842 -67.4840 PROVISIONAL 861 861 P_____________ AL052020 31.7842 -67.4840 TD 30 1007 -1 1011 120 30 10 55
2020185N32284 2020 35 NA NA EDOUARD 2020-07-05 00:00:00 TS 32.1000 -67.0000 PROVISIONAL 884 884 O_____________ nhc_working_bt AL052020 32.1000 -67.0000 TD 30 1008 -1 1012 120 30 40 11 52
2020185N32284 2020 35 NA NA EDOUARD 2020-07-05 03:00:00 TS 32.4770 -66.4443 PROVISIONAL 912 912 P_____________ AL052020 32.4770 -66.4443 TD 30 1008 -1 1012 120 30 13 52
2020185N32284 2020 35 NA NA EDOUARD 2020-07-05 06:00:00 TS 32.9000 -65.8000 PROVISIONAL 945 945 O_____________ nhc_working_bt AL052020 32.9000 -65.8000 TD 30 1008 -1 1012 120 30 40 14 54
2020185N32284 2020 35 NA NA EDOUARD 2020-07-05 09:00:00 TS 33.3189 -65.0805 PROVISIONAL 989 989 P_____________ AL052020 33.3189 -65.0805 TD 30 1008 -1 1012 120 30 16 56
2020185N32284 2020 35 NA NA EDOUARD 2020-07-05 12:00:00 TS 33.8000 -64.2000 PROVISIONAL 1015 1005 O_____________ nhc_working_bt AL052020 33.8000 -64.2000 TD 30 1008 -1 1012 120 30 40 19 57
2020185N32284 2020 35 NA NA EDOUARD 2020-07-05 15:00:00 TS 34.3601 -63.1822 PROVISIONAL 1005 987 P_____________ AL052020 34.3601 -63.1822 TD 30 1008 -1 1012 100 35 22 58
2020185N32284 2020 35 NA NA EDOUARD 2020-07-05 18:00:00 TS 35.0000 -61.9000 PROVISIONAL 989 969 O_____________ nhc_working_bt AL052020 35.0000 -61.9000 TD 30 1009 -1 1012 80 40 40 27 61
2020185N32284 2020 35 NA NA EDOUARD 2020-07-05 21:00:00 TS 35.6640 -60.2661 PROVISIONAL 967 966 P_____________ AL052020 35.6640 -60.2661 TD 32 1008 -1 1012 80 40 31 63
2020185N32284 2020 35 NA NA EDOUARD 2020-07-06 00:00:00 TS 36.4000 -58.5000 PROVISIONAL 978 953 O_____________ nhc_working_bt AL052020 36.4000 -58.5000 TS 35 1008 0 50 1012 80 40 45 31 60
2020185N32284 2020 35 NA NA EDOUARD 2020-07-06 03:00:00 TS 37.2161 -56.9107 PROVISIONAL 956 919 P_____________ AL052020 37.2161 -56.9107 TS 35 1008 0 50 1012 80 40 31 56
2020185N32284 2020 35 NA NA EDOUARD 2020-07-06 06:00:00 TS 38.1000 -55.3000 PROVISIONAL 923 856 O_____________ nhc_working_bt AL052020 38.1000 -55.3000 TS 35 1008 0 50 1012 80 40 45 32 56
2020185N32284 2020 35 NA NA EDOUARD 2020-07-06 09:00:00 TS 38.9819 -53.5621 PROVISIONAL 845 763 P_____________ AL052020 38.9819 -53.5621 TS 37 1007 0 60 1012 90 40 33 57
2020185N32284 2020 35 NA NA EDOUARD 2020-07-06 12:00:00 TS 39.9000 -51.7000 PROVISIONAL 754 699 O_____________ nhc_working_bt AL052020 39.9000 -51.7000 TS 40 1007 0 70 40 1013 100 40 50 12 150 35 58
2020185N32284 2020 35 NA NA EDOUARD 2020-07-06 15:00:00 TS 40.8505 -49.7033 PROVISIONAL 692 685 P_____________ AL052020 40.8505 -49.7033 TS 40 1006 0 90 1013 125 40 12 150 36 59
2020185N32284 2020 35 NA NA EDOUARD 2020-07-06 18:00:00 TS 41.8000 -47.6000 PROVISIONAL 694 O_____________ nhc_working_bt AL052020 41.8000 -47.6000 TS 40 1005 0 110 1013 150 40 50 12 150 37 59

IBTrACS Databaseについて

本データベースは、米国NOAAが公開する1842年以降の世界の熱帯低気圧のベストトラックデータアーカイブInternational Best Track Archive for Climate Stewardship (IBTrACS)を、ウェブで閲覧しやすい形式に変換したものです。

最終更新日:2021-12-01